Portada
METAR-TAF:

METAR-TAF

Aeropuertos :

Aeropuerto Internacional de Xi'an-Xianyang

Xi'an, China

latitud: 34-26N, longitud: 108-45E, altitud: 479 m

Observación

El informe se hizo hace 26 minutos, a las 21:00 UTC
Viento 4 kt del oeste
Temperatura 3°C
Humedad 81%
Presión 1027 hPa
Visibilidad: 8000 m

METAR: ZLXY 172100Z 26002MPS 8000 NSC 03/M00 Q1027 NOSIG

Hora: 05:26 (21:26 UTC)

Pronóstico

El informe se hizo hace 6 horas y 22 minutos, a las 15:04 UTC
Pronóstico válido del 17 a las 18 UTC al 18 a las 18 UTC
Viento 6 kt del oeste-suroeste
Visibilidad: 3000 m
calima

TAF: ZLXY 171504Z 1718/1818 24003MPS 3000 HZ NSC TX11/1807Z TN03/1723Z

Observaciones y pronósticos meteorológicos de más de 4000 aeropuertos (mensajes METAR y TAF).

Los puntos amarillos y rojos representan las estaciones disponibles.

Ponga el ratón en el punto deseado para ver el nombre de la estación.

Haga clic para ver las observaciones y los pronósticos meteorológicos.

Para cambiar el mapa : haga clic en los botones verdes con una cruz de color negro para hacer un zoom, en el botón verde con un guión para alejar o en las flechas verdes para mapas adyacentes.


METAR-TAF: